createdAt,value
2022-09-23T00:02:02.421Z,82.61
2022-09-23T00:04:31.546Z,82.98
2022-09-23T00:07:00.731Z,82.96
2022-09-23T00:09:30.131Z,82.71
2022-09-23T00:11:59.887Z,82.81
2022-09-23T00:14:29.240Z,82.61
2022-09-23T00:16:58.497Z,82.59
2022-09-23T00:19:29.588Z,83.12
2022-09-23T00:21:58.873Z,82.50
2022-09-23T00:24:32.400Z,82.54
2022-09-23T00:27:01.925Z,82.47
2022-09-23T00:29:31.962Z,82.48
2022-09-23T00:32:01.237Z,82.43
2022-09-23T00:34:32.057Z,82.68
2022-09-23T00:37:01.309Z,83.10
2022-09-23T00:39:30.723Z,82.84
2022-09-23T00:42:01.268Z,83.07
2022-09-23T00:44:48.238Z,82.84
2022-09-23T00:47:25.025Z,83.14
2022-09-23T00:50:07.018Z,83.38
2022-09-23T00:52:37.515Z,83.16
2022-09-23T00:55:14.042Z,83.25
2022-09-23T00:57:47.242Z,83.51
2022-09-23T01:00:17.007Z,83.44
2022-09-23T01:02:46.771Z,83.40
2022-09-23T01:05:18.315Z,83.09
2022-09-23T01:07:48.365Z,83.66
2022-09-23T01:10:19.646Z,83.74
2022-09-23T01:13:15.669Z,83.36
2022-09-23T01:15:50.812Z,83.91
2022-09-23T01:18:33.417Z,83.86
2022-09-23T01:21:22.810Z,84.16
2022-09-23T01:24:31.520Z,83.97
2022-09-23T01:27:12.031Z,84.10
2022-09-23T01:30:17.175Z,84.29
2022-09-23T01:33:10.949Z,84.02
2022-09-23T01:35:51.312Z,83.88
2022-09-23T01:38:37.490Z,83.60
2022-09-23T01:41:30.130Z,83.84
2022-09-23T01:44:07.278Z,83.70
2022-09-23T01:46:45.881Z,83.65
2022-09-23T01:49:21.616Z,83.73
2022-09-23T01:51:58.173Z,83.82
2022-09-23T01:54:38.883Z,83.91
2022-09-23T01:57:14.067Z,83.87
2022-09-23T01:59:49.049Z,84.15
2022-09-23T02:02:26.703Z,84.15
2022-09-23T02:05:03.864Z,84.59
2022-09-23T02:07:41.768Z,84.33
2022-09-23T02:10:19.697Z,84.49
2022-09-23T02:12:51.340Z,84.04
2022-09-23T02:15:24.901Z,83.83
2022-09-23T02:18:03.053Z,84.65
2022-09-23T02:20:39.732Z,84.63
2022-09-23T02:23:13.174Z,84.19
2022-09-23T02:25:51.608Z,84.36
2022-09-23T02:28:32.440Z,84.60
2022-09-23T02:31:09.526Z,84.22
2022-09-23T02:33:44.859Z,84.24
2022-09-23T02:36:25.834Z,84.38
2022-09-23T02:39:00.498Z,84.38
2022-09-23T02:41:34.770Z,84.71
2022-09-23T02:44:08.702Z,84.53
2022-09-23T02:46:39.127Z,84.54
2022-09-23T02:49:14.877Z,84.27
2022-09-23T02:51:45.911Z,84.62
2022-09-23T02:54:18.184Z,84.78
2022-09-23T02:56:48.355Z,84.54
2022-09-23T02:59:19.585Z,84.82
2022-09-23T03:02:14.297Z,85.10
2022-09-23T03:04:57.109Z,84.98
2022-09-23T03:07:37.422Z,85.00
2022-09-23T03:10:16.508Z,85.35
2022-09-23T03:12:54.074Z,85.57
2022-09-23T03:15:35.611Z,85.39
2022-09-23T03:18:16.742Z,85.44
2022-09-23T03:20:52.480Z,85.79
2022-09-23T03:23:30.595Z,85.69
2022-09-23T03:26:06.170Z,85.30
2022-09-23T03:28:38.551Z,85.88
2022-09-23T03:31:08.440Z,85.46
2022-09-23T03:33:40.471Z,85.16
2022-09-23T03:36:38.757Z,85.29
2022-09-23T03:39:17.473Z,85.25
2022-09-23T03:41:52.447Z,85.76
2022-09-23T03:44:23.488Z,85.93
2022-09-23T03:46:52.945Z,85.89
2022-09-23T03:49:28.548Z,85.98
2022-09-23T03:51:58.487Z,85.95
2022-09-23T03:54:30.070Z,85.82
2022-09-23T03:56:59.849Z,85.72
2022-09-23T03:59:30.448Z,86.20
2022-09-23T04:02:00.418Z,86.53
2022-09-23T04:04:29.782Z,86.14
2022-09-23T04:06:59.221Z,85.92
2022-09-23T04:09:29.754Z,86.07
2022-09-23T04:11:58.988Z,85.92
2022-09-23T04:14:28.367Z,85.89
2022-09-23T04:16:57.616Z,85.67
2022-09-23T04:19:26.879Z,85.57
2022-09-23T04:21:56.103Z,85.98
2022-09-23T04:24:25.510Z,85.74
2022-09-23T04:26:57.609Z,85.88
2022-09-23T04:29:27.776Z,86.29
2022-09-23T04:31:57.885Z,85.60
2022-09-23T04:34:27.059Z,85.77
2022-09-23T04:36:56.265Z,85.99
2022-09-23T04:39:25.370Z,85.56
2022-09-23T04:41:55.840Z,85.37
2022-09-23T04:44:26.874Z,85.76
2022-09-23T04:46:56.229Z,85.50
2022-09-23T04:49:26.327Z,85.91
2022-09-23T04:51:55.775Z,85.98
2022-09-23T04:54:26.528Z,85.99
2022-09-23T04:56:57.222Z,86.52
2022-09-23T04:59:26.727Z,86.53
2022-09-23T05:01:56.027Z,87.17
2022-09-23T05:04:25.228Z,87.66
2022-09-23T05:06:54.381Z,88.09
2022-09-23T05:09:23.493Z,87.31
2022-09-23T05:11:52.680Z,87.43
2022-09-23T05:14:23.480Z,87.31
2022-09-23T05:16:52.709Z,87.23
2022-09-23T05:19:21.916Z,87.16
2022-09-23T05:21:51.048Z,86.95
2022-09-23T05:24:20.305Z,86.60
2022-09-23T05:26:49.404Z,86.52
2022-09-23T05:29:18.934Z,86.44
2022-09-23T05:31:49.482Z,86.21
2022-09-23T05:34:19.176Z,86.37
2022-09-23T05:36:48.349Z,86.46
2022-09-23T05:39:17.664Z,86.60
2022-09-23T05:41:46.803Z,86.46
2022-09-23T05:44:15.946Z,86.66
2022-09-23T05:46:45.165Z,86.63
2022-09-23T05:49:15.808Z,86.52
2022-09-23T05:51:45.066Z,86.15
2022-09-23T05:54:14.227Z,86.59
2022-09-23T05:56:43.898Z,86.31
2022-09-23T05:59:13.032Z,86.56
2022-09-23T06:01:46.361Z,86.79
2022-09-23T06:04:17.034Z,87.32
2022-09-23T06:06:46.410Z,86.77
2022-09-23T06:09:16.498Z,86.82
2022-09-23T06:11:46.159Z,86.92
2022-09-23T06:14:16.025Z,87.03
2022-09-23T06:16:45.234Z,87.35
2022-09-23T06:19:14.373Z,87.30
2022-09-23T06:21:44.956Z,87.22
2022-09-23T06:24:18.261Z,87.18
2022-09-23T06:26:50.101Z,87.99
2022-09-23T06:29:19.649Z,87.92
2022-09-23T06:31:50.822Z,87.79
2022-09-23T06:34:20.592Z,87.75
2022-09-23T06:36:51.959Z,87.41
2022-09-23T06:39:21.022Z,87.95
2022-09-23T06:41:50.108Z,87.50
2022-09-23T06:44:19.388Z,88.26
2022-09-23T06:46:48.615Z,87.97
2022-09-23T06:49:17.893Z,88.08
2022-09-23T06:51:47.030Z,88.35
2022-09-23T06:54:17.605Z,88.06
2022-09-23T06:56:47.547Z,88.14
2022-09-23T06:59:18.447Z,88.68
2022-09-23T07:01:48.627Z,88.43
2022-09-23T07:04:18.000Z,89.42
2022-09-23T07:06:47.126Z,89.35
2022-09-23T07:09:17.714Z,88.58
2022-09-23T07:11:48.696Z,87.37
2022-09-23T07:14:17.946Z,87.27
2022-09-23T07:16:49.886Z,87.88
2022-09-23T07:19:19.173Z,88.00
2022-09-23T07:21:48.468Z,86.14
2022-09-23T07:24:19.155Z,84.29
2022-09-23T07:26:49.024Z,86.16
2022-09-23T07:29:18.278Z,83.14
2022-09-23T07:31:47.376Z,86.33
2022-09-23T07:34:16.490Z,85.12
2022-09-23T07:36:45.576Z,84.35
2022-09-23T07:39:15.151Z,84.77
2022-09-23T07:41:45.606Z,86.09
2022-09-23T07:44:14.956Z,87.17
2022-09-23T07:46:44.169Z,84.03
2022-09-23T07:49:13.709Z,86.80
2022-09-23T07:51:46.240Z,86.05
2022-09-23T07:54:17.578Z,84.54
2022-09-23T07:56:48.769Z,85.90
2022-09-23T07:59:20.292Z,84.04
2022-09-23T08:01:52.760Z,84.53
2022-09-23T08:04:24.186Z,81.06
2022-09-23T08:06:55.260Z,82.77
2022-09-23T08:09:26.945Z,81.11
2022-09-23T08:11:57.461Z,80.62
2022-09-23T08:14:27.039Z,80.17
2022-09-23T08:16:56.932Z,81.00
2022-09-23T08:19:26.134Z,82.47
2022-09-23T08:21:55.333Z,80.79
2022-09-23T08:24:26.599Z,76.37
2022-09-23T08:26:57.439Z,74.15
2022-09-23T08:29:27.673Z,73.95
2022-09-23T08:31:57.238Z,76.37
2022-09-23T08:34:29.386Z,74.12
2022-09-23T08:36:58.556Z,72.03
2022-09-23T08:39:27.791Z,74.98
2022-09-23T08:42:20.125Z,70.10
2022-09-23T08:44:54.387Z,72.79
2022-09-23T08:47:28.051Z,73.36
2022-09-23T08:50:07.326Z,72.03
2022-09-23T08:52:43.290Z,68.75
2022-09-23T08:55:15.019Z,70.40
2022-09-23T08:58:23.917Z,64.86
2022-09-23T09:01:04.076Z,66.55
2022-09-23T09:03:39.392Z,64.23
2022-09-23T09:06:14.080Z,67.08
2022-09-23T09:08:45.479Z,66.56
2022-09-23T09:11:17.409Z,66.28
2022-09-23T09:13:58.910Z,66.00
2022-09-23T09:16:59.661Z,66.74
2022-09-23T09:19:59.395Z,68.00
2022-09-23T09:22:53.871Z,69.26
2022-09-23T09:25:44.651Z,68.26
2022-09-23T09:28:23.453Z,69.27
2022-09-23T09:30:59.940Z,67.86
2022-09-23T09:33:36.868Z,66.47
2022-09-23T09:36:26.885Z,67.27
2022-09-23T09:38:58.806Z,66.34
2022-09-23T09:41:31.644Z,63.47
2022-09-23T09:44:08.892Z,65.29
2022-09-23T09:46:54.671Z,61.47
2022-09-23T09:49:39.501Z,61.18
2022-09-23T09:52:20.093Z,62.07
2022-09-23T09:54:51.040Z,61.43
2022-09-23T09:57:35.833Z,60.25
2022-09-23T10:00:46.195Z,54.25
2022-09-23T10:03:40.095Z,54.81
2022-09-23T10:06:20.662Z,55.17
2022-09-23T10:09:14.034Z,57.09
2022-09-23T10:11:44.763Z,56.96
2022-09-23T10:14:18.767Z,56.10
2022-09-23T10:17:05.503Z,57.12
2022-09-23T10:19:39.407Z,56.89
2022-09-23T10:22:20.696Z,56.67
2022-09-23T10:24:52.727Z,57.10
2022-09-23T10:27:32.060Z,57.28
2022-09-23T10:30:04.597Z,57.56
2022-09-23T10:32:37.402Z,57.71
2022-09-23T10:35:18.119Z,57.41
2022-09-23T10:37:50.718Z,57.43
2022-09-23T10:40:43.559Z,55.13
2022-09-23T10:43:51.967Z,54.91
2022-09-23T10:46:41.757Z,54.85
2022-09-23T10:49:36.676Z,53.76
2022-09-23T10:52:24.476Z,52.89
2022-09-23T10:55:08.052Z,53.25
2022-09-23T10:57:53.762Z,53.46
2022-09-23T11:00:29.521Z,52.99
2022-09-23T11:03:40.356Z,53.65
2022-09-23T11:06:25.199Z,54.07
2022-09-23T11:09:18.036Z,53.71
2022-09-23T11:12:06.893Z,54.08
2022-09-23T11:15:16.659Z,51.48
2022-09-23T11:18:30.449Z,50.05
2022-09-23T11:21:14.428Z,50.62
2022-09-23T11:24:08.859Z,51.18
2022-09-23T11:26:48.276Z,52.19
2022-09-23T11:29:36.542Z,51.84
2022-09-23T11:32:34.647Z,52.26
2022-09-23T11:35:16.538Z,48.54
2022-09-23T11:37:51.619Z,48.06
2022-09-23T11:40:30.242Z,48.01
2022-09-23T11:43:07.313Z,48.02
2022-09-23T11:45:41.190Z,46.05
2022-09-23T11:48:18.197Z,46.70
2022-09-23T11:50:55.595Z,46.81
2022-09-23T11:53:40.025Z,46.83
2022-09-23T11:56:31.900Z,48.33
2022-09-23T11:59:11.632Z,49.77
2022-09-23T12:01:47.968Z,50.45
2022-09-23T12:04:27.245Z,52.06
2022-09-23T12:07:02.741Z,52.78
2022-09-23T12:09:57.788Z,53.88
2022-09-23T12:12:39.143Z,54.54
2022-09-23T12:15:35.608Z,51.99
2022-09-23T12:18:43.998Z,50.45
2022-09-23T12:21:56.878Z,48.19
2022-09-23T12:24:56.696Z,48.16
2022-09-23T12:27:36.691Z,47.54
2022-09-23T12:30:14.626Z,47.94
2022-09-23T12:32:44.361Z,47.71
2022-09-23T12:35:24.224Z,46.21
2022-09-23T12:37:54.227Z,45.67
2022-09-23T12:40:31.224Z,45.36
2022-09-23T12:43:03.567Z,44.10
2022-09-23T12:45:41.551Z,43.90
2022-09-23T12:48:47.984Z,40.07
2022-09-23T12:51:23.547Z,40.73
2022-09-23T12:54:23.046Z,37.42
2022-09-23T12:57:11.127Z,37.20
2022-09-23T13:00:16.285Z,38.48
2022-09-23T13:03:16.492Z,40.11
2022-09-23T13:06:09.120Z,41.56
2022-09-23T13:08:41.753Z,43.27
2022-09-23T13:11:28.481Z,45.58
2022-09-23T13:14:01.111Z,45.38
2022-09-23T13:16:37.109Z,45.58
2022-09-23T13:19:08.285Z,45.97
2022-09-23T13:22:14.470Z,47.38
2022-09-23T13:24:53.389Z,48.91
2022-09-23T13:27:28.816Z,49.04
2022-09-23T13:30:04.084Z,50.56
2022-09-23T13:32:40.768Z,51.22
2022-09-23T13:35:24.366Z,50.40
2022-09-23T13:37:54.377Z,49.49
2022-09-23T13:40:26.793Z,45.34
2022-09-23T13:43:01.413Z,43.30
2022-09-23T13:45:32.481Z,43.42
2022-09-23T13:48:07.430Z,40.29
2022-09-23T13:50:40.948Z,41.11
2022-09-23T13:53:14.370Z,41.38
2022-09-23T13:55:43.629Z,42.25
2022-09-23T13:58:20.302Z,43.06
2022-09-23T14:00:50.906Z,43.44
2022-09-23T14:03:36.091Z,42.02
2022-09-23T14:06:10.964Z,42.17
2022-09-23T14:08:43.037Z,40.34
2022-09-23T14:11:17.652Z,38.41
2022-09-23T14:13:50.063Z,36.70
2022-09-23T14:16:19.711Z,36.84
2022-09-23T14:18:53.025Z,36.66
2022-09-23T14:21:35.313Z,34.71
2022-09-23T14:24:17.247Z,34.87
2022-09-23T14:26:50.935Z,35.51
2022-09-23T14:29:25.493Z,34.79
2022-09-23T14:32:00.302Z,35.23
2022-09-23T14:35:09.328Z,33.72
2022-09-23T14:38:02.254Z,33.34
2022-09-23T14:40:34.168Z,33.97
2022-09-23T14:43:07.985Z,33.32
2022-09-23T14:45:40.589Z,34.35
2022-09-23T14:48:15.644Z,34.74
2022-09-23T14:50:52.572Z,33.12
2022-09-23T14:53:37.655Z,33.30
2022-09-23T14:56:20.493Z,33.44
2022-09-23T14:58:55.477Z,34.75
2022-09-23T15:01:39.217Z,35.92
2022-09-23T15:04:16.993Z,38.73
2022-09-23T15:06:55.913Z,40.23
2022-09-23T15:09:28.399Z,43.63
2022-09-23T15:12:03.884Z,45.17
2022-09-23T15:14:39.778Z,48.23
2022-09-23T15:17:32.698Z,52.17
2022-09-23T15:20:06.670Z,53.10
2022-09-23T15:22:46.231Z,54.80
2022-09-23T15:25:22.690Z,56.19
2022-09-23T15:28:05.913Z,57.45
2022-09-23T15:30:38.245Z,58.47
2022-09-23T15:33:09.094Z,60.39
2022-09-23T15:35:40.416Z,61.45
2022-09-23T15:38:12.387Z,63.78
2022-09-23T15:40:41.701Z,63.14
2022-09-23T15:43:21.183Z,64.17
2022-09-23T15:45:53.287Z,64.43
2022-09-23T15:48:26.159Z,64.10
2022-09-23T15:50:56.012Z,63.85
2022-09-23T15:53:28.506Z,64.74
2022-09-23T15:55:58.755Z,64.44
2022-09-23T15:58:28.341Z,64.21
2022-09-23T16:00:58.372Z,64.70
2022-09-23T16:03:29.405Z,64.58
2022-09-23T16:06:02.456Z,64.88
2022-09-23T16:08:33.510Z,64.93
2022-09-23T16:11:03.506Z,65.14
2022-09-23T16:13:32.696Z,65.20
2022-09-23T16:16:02.271Z,65.56
2022-09-23T16:18:31.561Z,65.34
2022-09-23T16:21:00.749Z,65.60
2022-09-23T16:23:38.933Z,65.32
2022-09-23T16:26:15.291Z,65.73
2022-09-23T16:28:45.214Z,65.34
2022-09-23T16:31:16.297Z,63.99
2022-09-23T16:33:47.012Z,63.80
2022-09-23T16:36:25.987Z,63.11
2022-09-23T16:38:58.031Z,62.99
2022-09-23T16:41:29.651Z,63.20
2022-09-23T16:44:00.856Z,62.94
2022-09-23T16:46:31.662Z,62.91
2022-09-23T16:49:05.448Z,62.23
2022-09-23T16:51:38.674Z,63.01
2022-09-23T16:54:12.023Z,62.41
2022-09-23T16:56:45.383Z,62.56
2022-09-23T16:59:15.687Z,62.44
2022-09-23T17:02:02.552Z,62.83
2022-09-23T17:04:31.870Z,62.62
2022-09-23T17:07:01.039Z,62.71
2022-09-23T17:09:33.174Z,62.40
2022-09-23T17:12:13.840Z,62.89
2022-09-23T17:14:43.805Z,62.67
2022-09-23T17:17:13.930Z,62.15
2022-09-23T17:19:43.184Z,62.35
2022-09-23T17:22:12.317Z,61.99
2022-09-23T17:24:42.943Z,62.16
2022-09-23T17:27:12.139Z,62.27
2022-09-23T17:29:41.346Z,62.68
2022-09-23T17:32:13.250Z,62.74
2022-09-23T17:34:44.089Z,62.79
2022-09-23T17:37:13.332Z,62.56
2022-09-23T17:39:43.966Z,62.88
2022-09-23T17:42:13.307Z,62.18
2022-09-23T17:44:42.445Z,62.27
2022-09-23T17:47:11.546Z,62.66
2022-09-23T17:49:40.701Z,62.82
2022-09-23T17:52:10.148Z,62.87
2022-09-23T17:54:39.323Z,63.09
2022-09-23T17:57:09.941Z,63.28
2022-09-23T17:59:39.264Z,63.26
2022-09-23T18:02:10.583Z,63.19
2022-09-23T18:04:42.954Z,63.39
2022-09-23T18:07:12.086Z,63.75
2022-09-23T18:09:41.213Z,63.73
2022-09-23T18:12:11.846Z,63.45
2022-09-23T18:14:40.954Z,63.61
2022-09-23T18:17:11.054Z,63.51
2022-09-23T18:19:40.254Z,63.36
2022-09-23T18:22:09.430Z,63.81
2022-09-23T18:24:41.209Z,63.62
2022-09-23T18:27:11.722Z,63.53
2022-09-23T18:29:40.862Z,63.68
2022-09-23T18:32:13.960Z,63.78
2022-09-23T18:34:43.653Z,63.82
2022-09-23T18:37:16.027Z,63.85
2022-09-23T18:39:45.317Z,63.94
2022-09-23T18:42:15.865Z,64.17
2022-09-23T18:44:45.070Z,64.41
2022-09-23T18:47:34.147Z,64.50
2022-09-23T18:50:20.913Z,64.57
2022-09-23T18:52:49.991Z,63.81
2022-09-23T18:55:19.793Z,63.13
2022-09-23T18:57:50.284Z,62.54
2022-09-23T19:00:19.898Z,62.68
2022-09-23T19:02:49.010Z,62.66
2022-09-23T19:05:19.073Z,62.22
2022-09-23T19:07:48.262Z,62.30
2022-09-23T19:10:19.264Z,62.04
2022-09-23T19:12:50.022Z,62.31
2022-09-23T19:15:19.360Z,62.55
2022-09-23T19:17:48.497Z,62.79
2022-09-23T19:20:17.789Z,62.82
2022-09-23T19:22:48.425Z,63.10
2022-09-23T19:25:17.883Z,63.12
2022-09-23T19:27:47.040Z,63.13
2022-09-23T19:30:19.246Z,63.33
2022-09-23T19:32:49.118Z,63.89
2022-09-23T19:35:18.448Z,64.06
2022-09-23T19:37:49.436Z,64.55
2022-09-23T19:40:18.770Z,65.10
2022-09-23T19:42:47.969Z,64.62
2022-09-23T19:45:18.881Z,64.47
2022-09-23T19:47:48.443Z,64.04
2022-09-23T19:50:19.228Z,64.10
2022-09-23T19:52:51.865Z,64.09
2022-09-23T19:55:21.132Z,63.63
2022-09-23T19:57:50.514Z,64.18
2022-09-23T20:00:21.458Z,63.85
2022-09-23T20:02:53.271Z,63.81
2022-09-23T20:05:23.285Z,63.17
2022-09-23T20:07:52.908Z,63.78
2022-09-23T20:10:22.794Z,63.92
2022-09-23T20:12:51.986Z,63.35
2022-09-23T20:15:23.348Z,63.51
2022-09-23T20:17:55.470Z,63.50
2022-09-23T20:20:28.489Z,63.65
2022-09-23T20:22:57.898Z,63.71
2022-09-23T20:25:27.105Z,64.12
2022-09-23T20:27:57.817Z,64.19
2022-09-23T20:30:39.640Z,64.36
2022-09-23T20:33:08.954Z,65.25
2022-09-23T20:35:39.150Z,65.26
2022-09-23T20:38:08.349Z,65.75
2022-09-23T20:40:38.850Z,65.58
2022-09-23T20:43:08.102Z,65.83
2022-09-23T20:45:38.753Z,65.96
2022-09-23T20:48:11.416Z,66.23
2022-09-23T20:50:43.088Z,65.12
2022-09-23T20:53:12.280Z,65.03
2022-09-23T20:55:51.479Z,64.46
2022-09-23T20:58:29.269Z,64.56
2022-09-23T21:01:04.642Z,64.63
2022-09-23T21:03:34.988Z,64.75
2022-09-23T21:06:05.828Z,64.69
2022-09-23T21:08:39.440Z,64.11
2022-09-23T21:11:11.602Z,64.32
2022-09-23T21:13:41.076Z,63.67
2022-09-23T21:16:12.870Z,63.08
2022-09-23T21:18:42.077Z,63.11
2022-09-23T21:21:14.205Z,62.98
2022-09-23T21:23:44.079Z,63.35
2022-09-23T21:26:15.481Z,63.55
2022-09-23T21:28:46.656Z,63.75
2022-09-23T21:31:24.079Z,63.69
2022-09-23T21:33:59.146Z,64.06
2022-09-23T21:36:30.068Z,64.36
2022-09-23T21:39:02.258Z,64.61
2022-09-23T21:41:31.599Z,64.68
2022-09-23T21:44:03.397Z,65.33
2022-09-23T21:46:35.312Z,65.75
2022-09-23T21:49:05.171Z,65.93
2022-09-23T21:51:40.715Z,65.97
2022-09-23T21:54:14.550Z,66.27
2022-09-23T21:56:46.240Z,66.47
2022-09-23T21:59:15.399Z,66.56
2022-09-23T22:01:48.347Z,67.11
2022-09-23T22:04:21.191Z,66.79
2022-09-23T22:06:50.435Z,66.56
2022-09-23T22:09:22.603Z,66.48
2022-09-23T22:12:10.981Z,66.84
2022-09-23T22:14:43.457Z,66.79
2022-09-23T22:17:16.570Z,66.80
2022-09-23T22:19:47.157Z,66.84
2022-09-23T22:22:18.522Z,67.09
2022-09-23T22:24:48.590Z,67.05
2022-09-23T22:27:21.909Z,66.93
2022-09-23T22:30:08.191Z,67.17
2022-09-23T22:32:41.847Z,67.10
2022-09-23T22:35:13.515Z,67.33
2022-09-23T22:37:43.035Z,67.19
2022-09-23T22:40:15.312Z,67.56
2022-09-23T22:42:45.014Z,67.56
2022-09-23T22:45:14.670Z,67.61
2022-09-23T22:47:46.054Z,67.62
2022-09-23T22:50:15.914Z,67.58
2022-09-23T22:52:45.115Z,67.42
2022-09-23T22:55:14.335Z,67.63
2022-09-23T22:57:43.505Z,68.00
2022-09-23T23:00:14.156Z,68.09
2022-09-23T23:02:44.691Z,67.96
2022-09-23T23:05:14.596Z,68.33
2022-09-23T23:07:43.686Z,67.94
2022-09-23T23:10:14.262Z,68.51
2022-09-23T23:12:43.576Z,68.70
2022-09-23T23:15:12.989Z,68.92
2022-09-23T23:17:43.823Z,69.42
2022-09-23T23:20:14.691Z,69.64
2022-09-23T23:22:43.919Z,69.40
2022-09-23T23:25:13.128Z,69.85
2022-09-23T23:27:42.254Z,69.79
2022-09-23T23:30:12.610Z,70.27
